createdAt,value
2018-07-12T00:00:18.454Z,0
2018-07-12T00:01:17.869Z,0
2018-07-12T00:02:18.120Z,0
2018-07-12T00:03:17.865Z,0
2018-07-12T00:04:17.609Z,0
2018-07-12T00:05:17.612Z,0
2018-07-12T00:06:18.133Z,0
2018-07-12T00:07:17.866Z,0
2018-07-12T00:08:18.119Z,0
2018-07-12T00:09:17.879Z,0
2018-07-12T00:10:18.030Z,0
2018-07-12T00:11:17.618Z,0
2018-07-12T00:12:17.873Z,0
2018-07-12T00:13:18.124Z,0
2018-07-12T00:14:17.864Z,0
2018-07-12T00:15:18.137Z,0
2018-07-12T00:16:17.611Z,0
2018-07-12T00:17:18.122Z,0
2018-07-12T00:18:17.862Z,0
2018-07-12T00:19:17.611Z,0
2018-07-12T00:20:18.116Z,0
2018-07-12T00:21:17.866Z,0
2018-07-12T00:22:18.117Z,0
2018-07-12T00:23:18.115Z,0
2018-07-12T00:24:17.884Z,0
2018-07-12T00:25:17.868Z,0
2018-07-12T00:26:18.128Z,0
2018-07-12T00:27:17.893Z,0
2018-07-12T00:28:18.123Z,0
2018-07-12T00:29:17.627Z,0
2018-07-12T00:30:17.630Z,0
2018-07-12T00:31:17.620Z,0
2018-07-12T00:32:17.878Z,0
2018-07-12T00:33:18.144Z,0
2018-07-12T00:34:17.876Z,0
2018-07-12T00:35:17.885Z,0
2018-07-12T00:36:17.882Z,0
2018-07-12T00:37:17.883Z,0
2018-07-12T00:38:17.373Z,0
2018-07-12T00:39:17.880Z,0
2018-07-12T00:40:17.878Z,0
2018-07-12T00:41:18.144Z,0
2018-07-12T00:42:18.123Z,0
2018-07-12T00:43:17.624Z,0
2018-07-12T00:44:18.124Z,0
2018-07-12T00:45:17.877Z,0
2018-07-12T00:46:17.896Z,0
2018-07-12T00:47:18.133Z,0
2018-07-12T00:48:18.153Z,0
2018-07-12T00:49:17.883Z,0
2018-07-12T00:50:18.131Z,0
2018-07-12T00:51:17.883Z,0
2018-07-12T00:52:17.904Z,0
2018-07-12T00:53:18.147Z,0
2018-07-12T00:54:18.141Z,0
2018-07-12T00:55:17.759Z,0
2018-07-12T00:56:17.901Z,0
2018-07-12T00:57:18.151Z,0
2018-07-12T00:58:18.133Z,0
2018-07-12T00:59:17.884Z,0
2018-07-12T01:00:18.409Z,0
2018-07-12T01:01:17.875Z,0
2018-07-12T01:02:17.638Z,0
2018-07-12T01:03:18.139Z,0
2018-07-12T01:04:17.888Z,0
2018-07-12T01:05:18.173Z,0
2018-07-12T01:06:17.631Z,0
2018-07-12T01:07:17.904Z,0
2018-07-12T01:08:17.887Z,0
2018-07-12T01:09:18.141Z,0
2018-07-12T01:10:17.898Z,0
2018-07-12T01:11:17.889Z,0
2018-07-12T01:12:18.171Z,0
2018-07-12T01:13:17.882Z,0
2018-07-12T01:14:17.889Z,0
2018-07-12T01:15:17.889Z,0
2018-07-12T01:16:17.891Z,0
2018-07-12T01:17:17.910Z,0
2018-07-12T01:18:18.163Z,0
2018-07-12T01:19:17.904Z,0
2018-07-12T01:20:17.908Z,0
2018-07-12T01:21:18.163Z,0
2018-07-12T01:22:17.627Z,0
2018-07-12T01:23:18.107Z,0
2018-07-12T01:24:18.123Z,0
2018-07-12T01:25:18.677Z,0
2018-07-12T01:26:17.887Z,0
2018-07-12T01:27:18.148Z,0
2018-07-12T01:28:18.204Z,0
2018-07-12T01:29:17.889Z,0
2018-07-12T01:30:18.147Z,0
2018-07-12T01:31:17.641Z,0
2018-07-12T01:32:18.188Z,0
2018-07-12T01:33:17.900Z,0
2018-07-12T01:34:18.169Z,0
2018-07-12T01:35:17.911Z,0
2018-07-12T01:36:18.197Z,0
2018-07-12T01:37:17.898Z,0
2018-07-12T01:38:17.642Z,0
2018-07-12T01:39:18.152Z,0
2018-07-12T01:40:17.882Z,0
2018-07-12T01:41:17.913Z,0
2018-07-12T01:42:18.151Z,0
2018-07-12T01:43:18.163Z,0
2018-07-12T01:44:17.904Z,0
2018-07-12T01:45:18.138Z,0
2018-07-12T01:46:17.889Z,0
2018-07-12T01:47:17.657Z,0
2018-07-12T01:48:17.902Z,0
2018-07-12T01:49:18.129Z,0
2018-07-12T01:50:17.909Z,0
2018-07-12T01:51:18.139Z,0
2018-07-12T01:52:18.140Z,0
2018-07-12T01:53:17.888Z,0
2018-07-12T01:54:17.905Z,0
2018-07-12T01:55:17.373Z,0
2018-07-12T01:56:18.171Z,0
2018-07-12T01:57:18.154Z,0
2018-07-12T01:58:17.911Z,0
2018-07-12T01:59:17.880Z,0
2018-07-12T02:00:17.631Z,0
2018-07-12T02:01:17.894Z,0
2018-07-12T02:02:17.894Z,0
2018-07-12T02:03:17.891Z,0
2018-07-12T02:04:18.137Z,0
2018-07-12T02:05:17.636Z,0
2018-07-12T02:06:18.146Z,0
2018-07-12T02:07:17.891Z,0
2018-07-12T02:08:17.969Z,0
2018-07-12T02:09:18.131Z,0
2018-07-12T02:10:18.156Z,0
2018-07-12T02:11:17.901Z,0
2018-07-12T02:12:17.901Z,0
2018-07-12T02:13:17.617Z,0
2018-07-12T02:14:18.133Z,0
2018-07-12T02:15:17.631Z,0
2018-07-12T02:16:18.137Z,0
2018-07-12T02:17:18.172Z,0
2018-07-12T02:18:17.624Z,0
2018-07-12T02:19:17.865Z,0
2018-07-12T02:20:18.144Z,0
2018-07-12T02:21:17.618Z,0
2018-07-12T02:22:17.614Z,0
2018-07-12T02:23:18.122Z,0
2018-07-12T02:24:17.871Z,0
2018-07-12T02:25:18.123Z,0
2018-07-12T02:26:17.872Z,0
2018-07-12T02:27:18.126Z,0
2018-07-12T02:28:17.623Z,0
2018-07-12T02:29:18.126Z,0
2018-07-12T02:30:17.637Z,0
2018-07-12T02:31:17.896Z,0
2018-07-12T02:32:17.859Z,0
2018-07-12T02:33:18.132Z,0
2018-07-12T02:34:17.623Z,0
2018-07-12T02:35:18.670Z,0
2018-07-12T02:36:18.126Z,0
2018-07-12T02:37:18.125Z,0
2018-07-12T02:38:17.876Z,0
2018-07-12T02:39:17.891Z,0
2018-07-12T02:40:17.890Z,0
2018-07-12T02:41:17.645Z,0
2018-07-12T02:42:17.875Z,0
2018-07-12T02:43:18.130Z,0
2018-07-12T02:44:17.875Z,0
2018-07-12T02:45:18.144Z,0
2018-07-12T02:46:18.155Z,0
2018-07-12T02:47:17.873Z,0
2018-07-12T02:48:17.612Z,0
2018-07-12T02:49:17.635Z,0
2018-07-12T02:50:18.218Z,0
2018-07-12T02:51:17.881Z,0
2018-07-12T02:52:18.146Z,0
2018-07-12T02:53:17.371Z,0
2018-07-12T02:54:17.859Z,0
2018-07-12T02:55:17.911Z,0
2018-07-12T02:56:17.889Z,0
2018-07-12T02:57:17.884Z,0
2018-07-12T02:58:17.871Z,0
2018-07-12T02:59:18.009Z,0
2018-07-12T03:00:17.973Z,0
2018-07-12T03:01:19.474Z,0
2018-07-12T03:02:18.221Z,0
2018-07-12T03:03:17.886Z,4
2018-07-12T03:04:17.900Z,4
2018-07-12T03:05:18.130Z,0
2018-07-12T03:06:17.873Z,4
2018-07-12T03:07:17.906Z,4
2018-07-12T03:08:17.868Z,4
2018-07-12T03:09:17.875Z,4
2018-07-12T03:10:18.155Z,4
2018-07-12T03:11:17.886Z,8
2018-07-12T03:12:18.121Z,8
2018-07-12T03:13:17.634Z,8
2018-07-12T03:14:17.884Z,8
2018-07-12T03:15:17.432Z,12
2018-07-12T03:16:17.879Z,12
2018-07-12T03:17:18.112Z,8
2018-07-12T03:18:17.865Z,12
2018-07-12T03:19:17.887Z,16
2018-07-12T03:20:18.115Z,16
2018-07-12T03:21:17.611Z,20
2018-07-12T03:22:18.163Z,20
2018-07-12T03:23:17.886Z,24
2018-07-12T03:24:17.869Z,28
2018-07-12T03:25:18.142Z,28
2018-07-12T03:26:18.127Z,32
2018-07-12T03:27:17.615Z,36
2018-07-12T03:28:17.873Z,40
2018-07-12T03:29:17.665Z,48
2018-07-12T03:30:17.956Z,52
2018-07-12T03:31:18.137Z,52
2018-07-12T03:32:17.883Z,56
2018-07-12T03:33:18.114Z,60
2018-07-12T03:34:17.607Z,64
2018-07-12T03:35:17.972Z,68
2018-07-12T03:36:18.137Z,72
2018-07-12T03:37:18.128Z,72
2018-07-12T03:38:18.129Z,80
2018-07-12T03:39:17.862Z,84
2018-07-12T03:40:17.871Z,88
2018-07-12T03:41:17.627Z,92
2018-07-12T03:42:17.868Z,96
2018-07-12T03:43:17.879Z,100
2018-07-12T03:44:17.882Z,104
2018-07-12T03:45:18.121Z,108
2018-07-12T03:46:17.876Z,116
2018-07-12T03:47:17.375Z,128
2018-07-12T03:48:17.873Z,140
2018-07-12T03:49:17.865Z,156
2018-07-12T03:50:17.621Z,172
2018-07-12T03:51:18.142Z,196
2018-07-12T03:52:17.872Z,216
2018-07-12T03:53:18.177Z,236
2018-07-12T03:54:17.620Z,260
2018-07-12T03:55:17.624Z,284
2018-07-12T03:56:18.147Z,316
2018-07-12T03:57:17.868Z,344
2018-07-12T03:58:17.869Z,368
2018-07-12T03:59:17.872Z,380
2018-07-12T04:00:18.126Z,392
2018-07-12T04:01:18.022Z,404
2018-07-12T04:02:17.646Z,416
2018-07-12T04:03:18.134Z,440
2018-07-12T04:04:17.629Z,472
2018-07-12T04:05:17.890Z,528
2018-07-12T04:06:17.878Z,580
2018-07-12T04:07:18.120Z,612
2018-07-12T04:08:17.879Z,636
2018-07-12T04:09:18.130Z,652
2018-07-12T04:10:17.876Z,696
2018-07-12T04:11:18.130Z,760
2018-07-12T04:12:18.123Z,816
2018-07-12T04:13:18.135Z,880
2018-07-12T04:14:17.618Z,952
2018-07-12T04:15:17.877Z,1004
2018-07-12T04:16:18.126Z,1052
2018-07-12T04:17:17.635Z,1100
2018-07-12T04:18:17.872Z,1160
2018-07-12T04:19:17.870Z,1252
2018-07-12T04:20:17.889Z,1392
2018-07-12T04:21:18.123Z,1556
2018-07-12T04:22:17.904Z,1736
2018-07-12T04:23:17.363Z,1932
2018-07-12T04:24:17.874Z,2140
2018-07-12T04:25:18.142Z,2324
2018-07-12T04:26:17.625Z,2508
2018-07-12T04:27:18.130Z,2744
2018-07-12T04:28:17.365Z,3032
2018-07-12T04:29:17.620Z,3288
2018-07-12T04:30:17.872Z,3512
2018-07-12T04:31:18.045Z,3592
2018-07-12T04:32:17.874Z,3552
2018-07-12T04:33:17.873Z,3472
2018-07-12T04:34:18.135Z,4268
2018-07-12T04:35:18.150Z,4836
2018-07-12T04:36:18.147Z,5196
2018-07-12T04:37:18.141Z,5056
2018-07-12T04:38:17.892Z,3760
2018-07-12T04:39:17.877Z,3180
2018-07-12T04:40:17.628Z,3056
2018-07-12T04:41:17.888Z,2872
2018-07-12T04:42:17.902Z,2836
2018-07-12T04:43:17.888Z,2832
2018-07-12T04:44:17.894Z,2892
2018-07-12T04:45:17.626Z,3072
2018-07-12T04:46:18.164Z,3340
2018-07-12T04:47:17.911Z,3608
2018-07-12T04:48:17.895Z,3828
2018-07-12T04:49:17.904Z,3968
2018-07-12T04:50:17.906Z,4072
2018-07-12T04:51:18.166Z,4216
2018-07-12T04:52:18.147Z,4624
2018-07-12T04:53:17.894Z,4084
2018-07-12T04:54:17.651Z,4092
2018-07-12T04:55:18.207Z,4112
2018-07-12T04:56:17.643Z,4020
2018-07-12T04:57:18.153Z,3848
2018-07-12T04:58:18.608Z,3600
2018-07-12T04:59:17.907Z,3240
2018-07-12T05:00:18.163Z,2860
2018-07-12T05:01:17.919Z,2552
2018-07-12T05:02:17.964Z,2360
2018-07-12T05:03:17.957Z,2304
2018-07-12T05:04:17.924Z,2312
2018-07-12T05:05:18.280Z,2348
2018-07-12T05:06:17.670Z,2412
2018-07-12T05:07:18.182Z,2444
2018-07-12T05:08:18.173Z,2412
2018-07-12T05:09:17.416Z,2396
2018-07-12T05:10:18.207Z,2416
2018-07-12T05:11:17.921Z,2484
2018-07-12T05:12:17.926Z,2416
2018-07-12T05:13:18.185Z,2312
2018-07-12T05:14:18.176Z,2292
2018-07-12T05:15:18.186Z,2316
2018-07-12T05:16:18.591Z,2332
2018-07-12T05:17:18.185Z,2380
2018-07-12T05:18:17.947Z,2496
2018-07-12T05:19:18.203Z,2684
2018-07-12T05:20:17.940Z,2856
2018-07-12T05:21:18.192Z,2988
2018-07-12T05:22:17.947Z,3136
2018-07-12T05:23:17.934Z,3316
2018-07-12T05:24:17.686Z,3460
2018-07-12T05:25:17.789Z,3560
2018-07-12T05:26:17.426Z,3628
2018-07-12T05:27:17.941Z,3688
2018-07-12T05:28:17.943Z,3712
2018-07-12T05:29:17.935Z,3724
2018-07-12T05:30:17.997Z,3744
2018-07-12T05:31:17.951Z,3820
2018-07-12T05:32:18.015Z,3964
2018-07-12T05:33:18.207Z,4184
2018-07-12T05:34:17.744Z,4516
2018-07-12T05:35:17.768Z,4896
2018-07-12T05:36:17.979Z,5216
2018-07-12T05:37:17.715Z,5448
2018-07-12T05:38:17.972Z,5668
2018-07-12T05:39:18.201Z,5884
2018-07-12T05:40:18.221Z,6160
2018-07-12T05:41:17.467Z,6164
2018-07-12T05:42:18.351Z,5836
2018-07-12T05:43:17.714Z,5464
2018-07-12T05:44:18.244Z,5260
2018-07-12T05:45:17.467Z,5232
2018-07-12T05:46:17.735Z,5368
2018-07-12T05:47:17.976Z,5536
2018-07-12T05:48:18.241Z,5600
2018-07-12T05:49:18.063Z,5592
2018-07-12T05:50:17.978Z,5504
2018-07-12T05:51:17.983Z,5360
2018-07-12T05:52:18.003Z,5128
2018-07-12T05:53:17.994Z,4880
2018-07-12T05:54:17.983Z,4592
2018-07-12T05:55:18.058Z,4216
2018-07-12T05:56:18.415Z,3856
2018-07-12T05:57:18.264Z,3596
2018-07-12T05:58:18.260Z,3492
2018-07-12T05:59:17.739Z,3476
2018-07-12T06:00:17.781Z,3500
2018-07-12T06:01:18.013Z,3536
2018-07-12T06:02:19.507Z,3504
2018-07-12T06:03:18.008Z,3444
2018-07-12T06:04:18.012Z,3328
2018-07-12T06:05:17.767Z,3236
2018-07-12T06:06:17.825Z,3128
2018-07-12T06:07:18.028Z,2908
2018-07-12T06:08:18.034Z,2604
2018-07-12T06:09:17.766Z,2352
2018-07-12T06:10:18.033Z,2140
2018-07-12T06:11:18.295Z,2004
2018-07-12T06:12:17.777Z,1904
2018-07-12T06:13:18.600Z,1864
2018-07-12T06:14:17.772Z,1852
2018-07-12T06:24:46.440Z,2024
2018-07-12T06:25:46.225Z,2020
2018-07-12T06:26:46.186Z,2024
2018-07-12T06:27:45.917Z,2108
2018-07-12T06:28:45.920Z,2272
2018-07-12T06:29:45.923Z,2468
2018-07-12T06:30:46.175Z,2620
2018-07-12T06:31:46.172Z,2708
2018-07-12T06:32:45.654Z,2776
2018-07-12T06:33:46.183Z,2848
2018-07-12T06:34:46.159Z,2864
2018-07-12T06:35:46.221Z,2816
2018-07-12T06:36:46.195Z,2720
2018-07-12T06:37:45.650Z,2600
2018-07-12T06:38:46.197Z,2484
2018-07-12T06:39:45.908Z,2392
2018-07-12T06:40:45.651Z,2348
2018-07-12T06:41:46.154Z,2396
2018-07-12T06:42:46.121Z,2504
2018-07-12T06:43:45.941Z,2608
2018-07-12T06:44:45.654Z,2704
2018-07-12T06:45:46.199Z,2748
2018-07-12T06:46:45.917Z,2744
2018-07-12T06:47:45.911Z,2704
2018-07-12T06:48:46.184Z,2592
2018-07-12T06:49:45.922Z,2468
2018-07-12T06:50:46.169Z,2384
2018-07-12T06:51:45.950Z,2268
2018-07-12T06:52:46.008Z,2116
2018-07-12T06:53:45.930Z,1968
2018-07-12T06:54:46.193Z,1828
2018-07-12T06:55:45.969Z,1724
2018-07-12T06:56:45.675Z,1692
2018-07-12T06:57:45.928Z,1724
2018-07-12T06:58:45.948Z,1792
2018-07-12T06:59:45.774Z,1872
2018-07-12T07:00:46.432Z,1960
2018-07-12T07:01:46.194Z,2068
2018-07-12T07:02:46.210Z,2200
2018-07-12T07:03:45.938Z,2324
2018-07-12T07:04:46.192Z,2432
2018-07-12T07:05:46.241Z,2512
2018-07-12T07:06:45.962Z,2576
2018-07-12T07:07:46.227Z,2656
2018-07-12T07:08:46.264Z,2760
2018-07-12T07:09:47.017Z,2868
2018-07-12T07:10:46.225Z,2964
2018-07-12T07:11:46.185Z,3036
2018-07-12T07:12:45.938Z,3072
2018-07-12T07:13:45.955Z,3100
2018-07-12T07:14:46.181Z,3112
2018-07-12T07:15:46.002Z,3116
2018-07-12T07:16:45.948Z,3144
2018-07-12T07:17:45.945Z,3240
2018-07-12T07:18:45.435Z,3368
2018-07-12T07:19:46.193Z,3432
2018-07-12T07:20:46.201Z,3436
2018-07-12T07:21:45.955Z,3412
2018-07-12T07:22:45.976Z,3332
2018-07-12T07:23:46.227Z,3272
2018-07-12T07:24:45.742Z,3260
2018-07-12T07:25:46.228Z,3252
2018-07-12T07:26:45.698Z,3220
2018-07-12T07:27:45.957Z,3164
2018-07-12T07:28:45.965Z,3088
2018-07-12T07:29:46.209Z,2964
2018-07-12T07:30:46.062Z,2868
2018-07-12T07:31:45.954Z,2840
2018-07-12T07:32:46.197Z,2796
2018-07-12T07:33:46.239Z,2756
2018-07-12T07:34:45.952Z,2720
2018-07-12T07:35:46.076Z,2680
2018-07-12T07:36:45.690Z,2636
2018-07-12T07:37:46.204Z,2612
2018-07-12T07:38:45.960Z,2592
2018-07-12T07:39:46.999Z,2584
2018-07-12T07:40:45.961Z,2580
2018-07-12T07:41:45.956Z,2588
2018-07-12T07:42:46.201Z,2616
2018-07-12T07:43:45.706Z,2664
2018-07-12T07:44:45.946Z,2740
2018-07-12T07:45:46.312Z,2844
2018-07-12T07:46:45.711Z,2964
2018-07-12T07:47:45.951Z,3124
2018-07-12T07:48:45.696Z,3340
2018-07-12T07:49:45.956Z,3616
2018-07-12T07:50:45.998Z,3928
2018-07-12T07:51:45.946Z,4208
2018-07-12T07:52:45.956Z,4424
2018-07-12T07:53:45.958Z,4632
2018-07-12T07:54:46.232Z,4868
2018-07-12T07:55:46.206Z,5164
2018-07-12T07:56:46.202Z,5636
2018-07-12T07:57:45.989Z,6252
2018-07-12T07:58:46.208Z,6904
2018-07-12T07:59:45.968Z,7460
2018-07-12T08:00:45.998Z,8024
2018-07-12T08:01:45.969Z,8724
2018-07-12T08:02:45.953Z,9512
2018-07-12T08:03:45.742Z,10332
2018-07-12T08:04:45.975Z,11164
2018-07-12T08:05:45.972Z,11772
2018-07-12T08:06:45.739Z,11800
2018-07-12T08:07:45.498Z,11228
2018-07-12T08:08:46.240Z,10588
2018-07-12T08:09:49.244Z,10104
2018-07-12T08:10:46.078Z,9880
2018-07-12T08:11:45.722Z,9940
2018-07-12T08:12:45.733Z,10200
2018-07-12T08:13:45.990Z,10532
2018-07-12T08:14:45.725Z,10820
2018-07-12T08:15:46.293Z,11008
2018-07-12T08:16:45.767Z,11228
2018-07-12T08:17:45.753Z,11480
2018-07-12T08:18:45.759Z,11572
2018-07-12T08:19:46.000Z,11480
2018-07-12T08:20:46.037Z,11164
2018-07-12T08:21:45.994Z,10924
2018-07-12T08:22:45.738Z,10960
2018-07-12T08:23:45.756Z,11348
2018-07-12T08:24:46.276Z,11704
2018-07-12T08:25:45.805Z,11920
2018-07-12T08:26:46.005Z,12400
2018-07-12T08:27:45.751Z,14124
2018-07-12T08:28:46.351Z,14540
2018-07-12T08:29:46.012Z,13432
2018-07-12T08:30:46.061Z,17664
2018-07-12T08:31:45.765Z,11452
2018-07-12T08:32:45.531Z,13072
2018-07-12T08:33:46.047Z,15044
2018-07-12T08:34:46.298Z,13812
2018-07-12T08:35:45.905Z,13520
2018-07-12T08:36:45.548Z,12416
2018-07-12T08:37:46.065Z,9416
2018-07-12T08:38:45.878Z,8980
2018-07-12T08:39:46.322Z,11380
2018-07-12T08:40:46.250Z,14164
2018-07-12T08:41:45.832Z,14092
2018-07-12T08:42:46.252Z,13900
2018-07-12T08:43:46.352Z,13732
2018-07-12T08:44:46.101Z,13800
2018-07-12T08:45:46.118Z,14088
2018-07-12T08:46:46.090Z,14560
2018-07-12T08:47:46.103Z,15108
2018-07-12T08:48:45.886Z,15524
2018-07-12T08:49:45.608Z,15120
2018-07-12T08:50:46.194Z,16256
2018-07-12T08:51:46.379Z,14880
2018-07-12T08:52:46.126Z,16160
2018-07-12T08:53:46.146Z,15520
2018-07-12T08:54:46.681Z,16000
2018-07-12T08:55:46.236Z,14792
2018-07-12T08:56:46.411Z,15968
2018-07-12T08:57:46.431Z,15540
2018-07-12T08:58:45.949Z,16512
2018-07-12T08:59:46.433Z,16768
2018-07-12T09:00:46.288Z,16384
2018-07-12T09:01:46.180Z,16384
2018-07-12T09:02:46.607Z,16416
2018-07-12T09:03:46.213Z,16608
2018-07-12T09:04:46.469Z,15348
2018-07-12T09:05:46.237Z,16928
2018-07-12T09:06:46.232Z,17376
2018-07-12T09:07:46.489Z,17344
2018-07-12T09:08:46.492Z,14748
2018-07-12T09:09:45.992Z,12324
2018-07-12T09:10:46.252Z,11344
2018-07-12T09:11:46.516Z,10652
2018-07-12T09:12:46.270Z,11072
2018-07-12T09:13:46.538Z,9908
2018-07-12T09:14:46.276Z,10812
2018-07-12T09:15:46.853Z,8780
2018-07-12T09:16:46.296Z,7936
2018-07-12T09:17:46.310Z,7496
2018-07-12T09:18:46.565Z,7436
2018-07-12T09:19:46.573Z,8700
2018-07-12T09:20:46.556Z,12892
2018-07-12T09:21:46.571Z,13024
2018-07-12T09:22:46.566Z,12968
2018-07-12T09:23:46.069Z,13276
2018-07-12T09:24:46.340Z,13232
2018-07-12T09:25:46.423Z,12400
2018-07-12T09:26:46.083Z,13008
2018-07-12T09:27:46.087Z,12800
2018-07-12T09:28:46.356Z,13304
2018-07-12T09:29:46.353Z,13380
2018-07-12T09:30:46.487Z,13692
2018-07-12T09:31:46.365Z,13928
2018-07-12T09:32:46.106Z,14048
2018-07-12T09:33:46.120Z,9032
2018-07-12T09:34:46.218Z,8264
2018-07-12T09:35:46.129Z,11912
2018-07-12T09:36:46.145Z,12932
2018-07-12T09:37:46.390Z,12940
2018-07-12T09:38:46.422Z,12464
2018-07-12T09:39:46.503Z,10716
2018-07-12T09:40:45.898Z,12072
2018-07-12T09:41:46.395Z,11996
2018-07-12T09:42:46.405Z,11916
2018-07-12T09:43:46.246Z,11924
2018-07-12T09:44:46.173Z,11960
2018-07-12T09:45:46.224Z,11956
2018-07-12T09:46:46.191Z,11960
2018-07-12T09:47:46.573Z,11976
2018-07-12T09:48:46.196Z,11948
2018-07-12T09:49:46.436Z,12036
2018-07-12T09:50:46.805Z,11896
2018-07-12T09:51:46.196Z,12084
2018-07-12T09:52:46.746Z,12200
2018-07-12T09:53:46.213Z,12268
2018-07-12T09:54:46.483Z,12248
2018-07-12T09:55:47.405Z,12288
2018-07-12T09:56:47.326Z,12236
2018-07-12T09:57:46.733Z,12232
2018-07-12T09:58:46.488Z,12260
2018-07-12T09:59:46.483Z,12180
2018-07-12T10:00:46.525Z,12028
2018-07-12T10:01:46.472Z,11948
2018-07-12T10:02:46.751Z,11848
2018-07-12T10:03:46.498Z,12096
2018-07-12T10:04:46.741Z,12240
2018-07-12T10:05:46.498Z,12300
2018-07-12T10:06:46.494Z,12380
2018-07-12T10:07:46.529Z,12320
2018-07-12T10:08:46.268Z,12288
2018-07-12T10:09:46.764Z,12400
2018-07-12T10:10:46.955Z,12620
2018-07-12T10:11:46.519Z,12936
2018-07-12T10:12:46.015Z,13244
2018-07-12T10:13:46.347Z,13492
2018-07-12T10:14:46.283Z,13704
2018-07-12T10:15:46.538Z,13716
2018-07-12T10:16:46.802Z,12952
2018-07-12T10:17:46.536Z,14052
2018-07-12T10:18:46.551Z,14116
2018-07-12T10:19:46.318Z,14304
2018-07-12T10:20:46.573Z,14268
2018-07-12T10:21:46.317Z,14312
2018-07-12T10:22:46.302Z,14244
2018-07-12T10:54:03.929Z,8416
2018-07-12T10:55:03.618Z,8444
2018-07-12T10:56:03.893Z,8516
2018-07-12T10:57:03.651Z,8632
2018-07-12T10:58:03.644Z,8760
2018-07-12T10:59:04.200Z,8992
2018-07-12T11:00:03.644Z,9232
2018-07-12T11:01:03.646Z,9476
2018-07-12T11:02:03.645Z,9744
2018-07-12T11:03:03.695Z,10088
2018-07-12T11:04:03.648Z,10396
2018-07-12T11:05:03.399Z,10612
2018-07-12T11:06:03.651Z,10744
2018-07-12T11:07:03.657Z,10912
2018-07-12T11:08:03.654Z,11060
2018-07-12T11:09:03.423Z,11172
2018-07-12T11:10:03.647Z,11320
2018-07-12T11:11:03.648Z,11472
2018-07-12T11:12:03.670Z,11616
2018-07-12T11:13:03.158Z,11748
2018-07-12T11:14:03.674Z,11860
2018-07-12T11:15:03.414Z,11908
2018-07-12T11:16:03.956Z,12076
2018-07-12T11:17:03.439Z,11796
2018-07-12T11:18:03.411Z,11616
2018-07-12T11:19:03.438Z,11676
2018-07-12T11:20:03.691Z,11784
2018-07-12T11:21:03.257Z,11856
2018-07-12T11:22:03.441Z,11884
2018-07-12T11:23:03.202Z,11896
2018-07-12T11:24:03.966Z,12004
2018-07-12T11:25:03.718Z,11892
2018-07-12T11:26:03.449Z,11800
2018-07-12T11:27:03.711Z,11724
2018-07-12T11:28:03.764Z,11716
2018-07-12T11:29:04.773Z,11688
2018-07-12T11:30:03.988Z,11608
2018-07-12T11:31:03.724Z,11452
2018-07-12T11:32:03.737Z,11240
2018-07-12T11:33:03.492Z,10912
2018-07-12T11:34:03.484Z,10564
2018-07-12T11:35:03.247Z,10208
2018-07-12T11:36:04.002Z,9916
2018-07-12T11:37:04.004Z,9724
2018-07-12T11:38:03.258Z,9560
2018-07-12T11:39:04.576Z,9300
2018-07-12T11:40:03.777Z,9008
2018-07-12T11:41:03.768Z,8784
2018-07-12T11:42:03.520Z,8648
2018-07-12T11:43:03.536Z,8560
2018-07-12T11:44:03.545Z,8588
2018-07-12T11:45:03.798Z,8764
2018-07-12T11:46:03.804Z,9028
2018-07-12T11:47:03.552Z,9336
2018-07-12T11:48:03.321Z,9620
2018-07-12T11:49:03.569Z,9892
2018-07-12T11:50:03.810Z,10144
2018-07-12T11:51:04.013Z,10364
2018-07-12T11:52:03.575Z,10684
2018-07-12T11:53:04.035Z,11304
2018-07-12T11:54:03.603Z,13768
2018-07-12T11:55:03.645Z,14748
2018-07-12T11:56:03.856Z,15496
2018-07-12T11:57:03.852Z,16000
2018-07-12T11:58:03.352Z,16448
2018-07-12T11:59:04.218Z,16832
2018-07-12T12:00:03.881Z,14852
2018-07-12T12:01:04.148Z,15448
2018-07-12T12:02:04.709Z,16256
2018-07-12T12:03:04.134Z,16320
2018-07-12T12:04:03.877Z,15936
2018-07-12T12:05:03.651Z,16832
2018-07-12T12:06:03.668Z,16448
2018-07-12T12:07:04.148Z,16704
2018-07-12T12:08:03.884Z,15492
2018-07-12T12:09:04.147Z,15872
2018-07-12T12:10:03.892Z,14112
2018-07-12T12:11:04.237Z,13672
2018-07-12T12:12:03.671Z,15360
2018-07-12T12:13:04.638Z,15140
2018-07-12T12:14:03.685Z,15000
2018-07-12T12:15:03.425Z,14844
2018-07-12T12:16:03.939Z,14496
2018-07-12T12:17:03.934Z,13504
2018-07-12T12:18:03.966Z,14676
2018-07-12T12:19:03.702Z,14520
2018-07-12T12:20:03.986Z,14104
2018-07-12T12:21:03.965Z,12420
2018-07-12T12:22:04.230Z,12304
2018-07-12T12:23:04.243Z,12308
2018-07-12T12:24:03.730Z,12364
2018-07-12T12:25:04.234Z,12408
2018-07-12T12:26:03.997Z,12408
2018-07-12T12:27:04.021Z,12408
2018-07-12T12:28:03.747Z,12428
2018-07-12T12:29:04.029Z,12564
2018-07-12T12:30:03.777Z,12404
2018-07-12T12:31:04.279Z,12112
2018-07-12T12:32:04.282Z,12020
2018-07-12T12:33:03.779Z,11964
2018-07-12T12:34:04.063Z,11924
2018-07-12T12:35:04.317Z,12024
2018-07-12T12:36:04.314Z,12268
2018-07-12T12:37:03.797Z,12136
2018-07-12T12:38:03.825Z,11948
2018-07-12T12:39:04.333Z,11676
2018-07-12T12:40:05.738Z,11440
2018-07-12T12:41:03.564Z,11292
2018-07-12T12:42:03.980Z,11240
2018-07-12T12:43:03.848Z,11036
2018-07-12T12:44:04.100Z,11140
2018-07-12T12:45:04.102Z,10928
2018-07-12T12:46:04.110Z,10532
2018-07-12T12:47:04.361Z,10920
2018-07-12T12:48:04.107Z,10608
2018-07-12T12:49:04.120Z,10284
2018-07-12T12:50:03.623Z,10012
2018-07-12T12:51:04.412Z,9732
2018-07-12T12:52:04.377Z,11096
2018-07-12T12:53:03.880Z,9860
2018-07-12T12:54:04.394Z,9940
2018-07-12T12:55:03.899Z,10484
2018-07-12T12:56:03.645Z,10680
2018-07-12T12:57:03.908Z,11588
2018-07-12T12:58:04.159Z,10248
2018-07-12T12:59:03.916Z,11496
2018-07-12T13:00:05.374Z,11240
2018-07-12T13:01:03.913Z,10604
2018-07-12T13:02:04.183Z,11464
2018-07-12T13:03:03.928Z,10248
2018-07-12T13:04:04.201Z,9896
2018-07-12T13:05:03.691Z,10032
2018-07-12T13:06:04.200Z,11332
2018-07-12T13:07:04.021Z,11168
2018-07-12T13:08:04.323Z,10920
2018-07-12T13:09:04.224Z,11424
2018-07-12T13:10:03.753Z,11468
2018-07-12T13:11:04.276Z,11736
2018-07-12T13:12:04.408Z,12444
2018-07-12T13:13:04.230Z,12868
2018-07-12T13:14:04.514Z,13212
2018-07-12T13:15:04.246Z,12072
2018-07-12T13:16:04.120Z,11788
2018-07-12T13:17:04.044Z,12040
2018-07-12T13:18:04.264Z,12168
2018-07-12T13:19:04.008Z,12020
2018-07-12T13:20:04.010Z,11684
2018-07-12T13:21:04.260Z,11456
2018-07-12T13:22:04.032Z,11372
2018-07-12T13:23:04.039Z,12452
2018-07-12T13:24:04.282Z,11892
2018-07-12T13:25:04.306Z,10800
2018-07-12T13:26:04.764Z,10364
2018-07-12T13:27:04.565Z,10344
2018-07-12T13:28:04.483Z,10348
2018-07-12T13:29:04.333Z,10236
2018-07-12T13:30:04.329Z,10112
2018-07-12T13:31:04.331Z,9984
2018-07-12T13:32:04.627Z,9792
2018-07-12T13:33:04.346Z,9544
2018-07-12T13:34:04.344Z,9228
2018-07-12T13:35:04.099Z,8996
2018-07-12T13:36:04.361Z,8840
2018-07-12T13:37:04.610Z,8756
2018-07-12T13:38:03.847Z,8612
2018-07-12T13:39:04.378Z,8544
2018-07-12T13:40:07.302Z,8520
2018-07-12T13:41:04.977Z,8536
2018-07-12T13:42:04.399Z,8496
2018-07-12T13:43:04.628Z,8372
2018-07-12T13:44:04.135Z,8216
2018-07-12T13:45:04.398Z,8036
2018-07-12T13:46:04.679Z,7896
2018-07-12T13:47:04.401Z,7848
2018-07-12T13:48:04.143Z,7828
2018-07-12T13:49:04.152Z,7764
2018-07-12T13:50:04.153Z,7656
2018-07-12T13:51:04.187Z,7524
2018-07-12T13:52:04.465Z,7368
2018-07-12T13:53:04.181Z,7276
2018-07-12T13:54:04.454Z,7300
2018-07-12T13:55:04.451Z,7676
2018-07-12T13:56:04.194Z,7368
2018-07-12T13:57:04.227Z,7596
2018-07-12T13:58:04.917Z,8404
2018-07-12T13:59:04.498Z,7420
2018-07-12T14:00:04.704Z,8116
2018-07-12T14:01:04.202Z,8204
2018-07-12T14:02:04.470Z,8116
2018-07-12T14:03:04.501Z,7644
2018-07-12T14:04:04.224Z,6936
2018-07-12T14:05:04.663Z,6892
2018-07-12T14:06:04.760Z,8020
2018-07-12T14:07:04.526Z,8028
2018-07-12T14:08:04.510Z,7852
2018-07-12T14:09:04.239Z,7764
2018-07-12T14:10:04.503Z,7692
2018-07-12T14:11:04.787Z,7600
2018-07-12T14:12:03.998Z,7564